Time;durP1;ratioP1;P1;durP2;ratioP2;P2;SDS_P1;SDS_P2;PMS_P1;PMS_P2;Temp;Humidity;BMP_temperature;BMP_pressure;BME280_temperature;BME280_humidity;BME280_pressure;Samples;Min_cycle;Max_cycle;Signal;HPM_P1;HPM_P2
2020/12/24 00:00:32;;;;;;;0.10;0.03;;;;;;;;;;5089713;28;20020;-56
2020/12/24 00:02:57;;;;;;;0.10;0.10;;;;;;;;;;5092309;28;20024;-55
2020/12/24 00:05:22;;;;;;;0.38;0.05;;;;;;;;;;5088771;28;20008;-56
2020/12/24 00:07:48;;;;;;;0.10;0.10;;;;;;;;;;5090293;28;20020;-57
2020/12/24 00:10:13;;;;;;;0.70;0.00;;;;;;;;;;5087445;28;20065;-58
2020/12/24 00:12:39;;;;;;;0.15;0.03;;;;;;;;;;5091433;28;20095;-58
2020/12/24 00:15:05;;;;;;;0.30;0.10;;;;;;;;;;5091900;28;20026;-55
2020/12/24 00:17:30;;;;;;;0.73;0.10;;;;;;;;;;5082799;28;20069;-56
2020/12/24 00:19:55;;;;;;;0.10;0.10;;;;;;;;;;5087831;28;20028;-56
2020/12/24 00:22:21;;;;;;;0.32;0.10;;;;;;;;;;5090689;28;20020;-58
2020/12/24 00:24:46;;;;;;;0.40;0.00;;;;;;;;;;5091735;28;20047;-56
2020/12/24 00:27:11;;;;;;;0.15;0.00;;;;;;;;;;5090575;28;20027;-58
2020/12/24 00:29:36;;;;;;;0.10;0.00;;;;;;;;;;5086023;28;20428;-54
2020/12/24 00:32:02;;;;;;;0.30;0.10;;;;;;;;;;5073043;28;20025;-57
2020/12/24 00:34:27;;;;;;;0.30;0.10;;;;;;;;;;5086369;28;20031;-56
2020/12/24 00:36:53;;;;;;;0.17;0.10;;;;;;;;;;5089247;28;20028;-57
2020/12/24 00:39:18;;;;;;;0.52;0.15;;;;;;;;;;5076816;28;20017;-58
2020/12/24 00:41:43;;;;;;;0.75;0.10;;;;;;;;;;5087105;28;20020;-57
2020/12/24 00:44:08;;;;;;;0.20;0.10;;;;;;;;;;5093081;28;20016;-57
2020/12/24 00:46:33;;;;;;;0.32;0.08;;;;;;;;;;5094296;28;20093;-58
2020/12/24 00:48:59;;;;;;;0.13;0.10;;;;;;;;;;5087721;28;20053;-57
2020/12/24 00:51:24;;;;;;;0.20;0.10;;;;;;;;;;5080135;28;20077;-53
2020/12/24 00:53:49;;;;;;;0.10;0.00;;;;;;;;;;5094383;28;20070;-57
2020/12/24 00:56:14;;;;;;;0.28;0.00;;;;;;;;;;5094862;28;20073;-59
2020/12/24 00:58:39;;;;;;;0.35;0.08;;;;;;;;;;5091065;28;20065;-57
2020/12/24 01:01:05;;;;;;;0.20;0.10;;;;;;;;;;5092730;28;20024;-58
2020/12/24 01:03:30;;;;;;;0.30;0.00;;;;;;;;;;5094149;28;20020;-57
2020/12/24 01:05:55;;;;;;;0.25;0.10;;;;;;;;;;5094153;28;20020;-57
2020/12/24 01:08:21;;;;;;;0.55;0.13;;;;;;;;;;5091820;28;20037;-56
2020/12/24 01:10:46;;;;;;;0.40;0.10;;;;;;;;;;5093198;28;20028;-58
2020/12/24 01:13:11;;;;;;;0.38;0.10;;;;;;;;;;5094546;28;20069;-56
2020/12/24 01:15:37;;;;;;;0.93;0.10;;;;;;;;;;5091482;28;20494;-55
2020/12/24 01:18:02;;;;;;;1.00;0.10;;;;;;;;;;5093562;28;20078;-56
2020/12/24 01:20:28;;;;;;;0.20;0.10;;;;;;;;;;5090700;28;20096;-57
2020/12/24 01:22:53;;;;;;;1.05;0.10;;;;;;;;;;5093899;28;20016;-55
2020/12/24 01:25:18;;;;;;;0.25;0.05;;;;;;;;;;5092663;28;20043;-56
2020/12/24 01:27:43;;;;;;;0.52;0.10;;;;;;;;;;5094431;28;20023;-56
2020/12/24 01:30:08;;;;;;;0.85;0.10;;;;;;;;;;5091131;28;20540;-55
2020/12/24 01:32:34;;;;;;;1.15;0.10;;;;;;;;;;5094645;28;20371;-58
2020/12/24 01:34:59;;;;;;;0.47;0.17;;;;;;;;;;5092849;28;20535;-57
2020/12/24 01:37:24;;;;;;;0.60;0.10;;;;;;;;;;5086446;28;20140;-57
2020/12/24 01:39:49;;;;;;;0.70;0.10;;;;;;;;;;5090943;28;20485;-57
2020/12/24 01:42:17;;;;;;;0.57;0.00;;;;;;;;;;5093442;28;20020;-56
2020/12/24 01:44:44;;;;;;;1.00;0.10;;;;;;;;;;5093393;28;20457;-55
2020/12/24 01:47:09;;;;;;;1.00;0.10;;;;;;;;;;5094019;28;20024;-57
2020/12/24 01:49:34;;;;;;;0.60;0.10;;;;;;;;;;5097511;28;20385;-58
2020/12/24 01:52:01;;;;;;;0.35;0.20;;;;;;;;;;5092844;28;20395;-56
2020/12/24 01:54:26;;;;;;;0.32;0.10;;;;;;;;;;5087855;28;20024;-57
2020/12/24 01:56:52;;;;;;;0.00;0.00;;;;;;;;;;5093183;28;20028;-57
2020/12/24 01:59:17;;;;;;;1.20;0.10;;;;;;;;;;5090210;28;20034;-57
2020/12/24 02:01:44;;;;;;;0.43;0.10;;;;;;;;;;5082789;28;20044;-53
2020/12/24 02:04:10;;;;;;;1.15;0.20;;;;;;;;;;5090138;28;20511;-57
2020/12/24 02:06:35;;;;;;;0.45;0.40;;;;;;;;;;5088673;28;20107;-57
2020/12/24 02:09:00;;;;;;;1.15;0.10;;;;;;;;;;5086116;28;20158;-56
2020/12/24 02:11:25;;;;;;;0.90;0.10;;;;;;;;;;5092903;28;20352;-56
2020/12/24 02:13:51;;;;;;;0.95;0.10;;;;;;;;;;5093581;28;20471;-56
2020/12/24 02:16:16;;;;;;;0.10;0.10;;;;;;;;;;5092171;28;20035;-57
2020/12/24 02:18:41;;;;;;;0.32;0.10;;;;;;;;;;5089733;28;20102;-57
2020/12/24 02:21:06;;;;;;;0.35;0.15;;;;;;;;;;5093235;28;20111;-56
2020/12/24 02:23:31;;;;;;;1.27;0.10;;;;;;;;;;5092628;28;20123;-58
2020/12/24 02:25:57;;;;;;;0.77;0.20;;;;;;;;;;5092749;28;20145;-58
2020/12/24 02:28:22;;;;;;;1.90;0.20;;;;;;;;;;5091069;28;20359;-58
2020/12/24 02:30:47;;;;;;;1.58;0.35;;;;;;;;;;5087306;28;20021;-52
2020/12/24 02:33:12;;;;;;;0.55;0.15;;;;;;;;;;5080465;28;20035;-58
2020/12/24 02:35:37;;;;;;;0.20;0.10;;;;;;;;;;5087613;28;20024;-57
2020/12/24 02:38:03;;;;;;;0.60;0.20;;;;;;;;;;5086082;28;20022;-57
2020/12/24 02:40:28;;;;;;;0.65;0.20;;;;;;;;;;5077785;28;20086;-56
2020/12/24 02:42:53;;;;;;;1.08;0.22;;;;;;;;;;5076361;28;20031;-54
2020/12/24 02:45:18;;;;;;;0.28;0.20;;;;;;;;;;5091739;28;20051;-57
2020/12/24 02:47:44;;;;;;;0.57;0.20;;;;;;;;;;5089953;28;20020;-57
2020/12/24 02:50:09;;;;;;;0.95;0.13;;;;;;;;;;5089705;28;20409;-58
2020/12/24 02:52:35;;;;;;;0.38;0.20;;;;;;;;;;5092990;28;20466;-57
2020/12/24 02:55:00;;;;;;;0.45;0.15;;;;;;;;;;5090489;28;20020;-58
2020/12/24 02:57:25;;;;;;;1.40;0.20;;;;;;;;;;5092764;28;20081;-55
2020/12/24 02:59:51;;;;;;;2.58;0.38;;;;;;;;;;5082170;28;20024;-55
2020/12/24 03:02:16;;;;;;;0.70;0.30;;;;;;;;;;5091531;28;20386;-57
2020/12/24 03:04:41;;;;;;;0.65;0.20;;;;;;;;;;5092198;28;20093;-56
2020/12/24 03:07:06;;;;;;;1.13;0.20;;;;;;;;;;5090148;28;20035;-55
2020/12/24 03:09:31;;;;;;;1.15;0.20;;;;;;;;;;5087276;28;20021;-57
2020/12/24 03:11:57;;;;;;;2.08;0.15;;;;;;;;;;5092804;28;20020;-57
2020/12/24 03:14:22;;;;;;;0.82;0.20;;;;;;;;;;5092289;28;20028;-57
2020/12/24 03:16:47;;;;;;;0.00;0.00;;;;;;;;;;5080246;28;20020;-54
2020/12/24 03:19:13;;;;;;;1.45;0.20;;;;;;;;;;5088810;28;20055;-57
2020/12/24 03:21:38;;;;;;;0.10;0.10;;;;;;;;;;5092342;28;20069;-52
2020/12/24 03:24:04;;;;;;;0.55;0.10;;;;;;;;;;5091310;28;20408;-56
2020/12/24 03:26:29;;;;;;;1.45;0.20;;;;;;;;;;5086850;28;20097;-54
2020/12/24 03:28:55;;;;;;;1.40;0.20;;;;;;;;;;5088869;28;20024;-56
2020/12/24 03:31:21;;;;;;;1.23;0.17;;;;;;;;;;5090911;28;20024;-56
2020/12/24 03:33:46;;;;;;;0.80;0.10;;;;;;;;;;5089754;28;20091;-57
2020/12/24 03:36:11;;;;;;;1.75;0.20;;;;;;;;;;5090559;28;20111;-56
2020/12/24 03:38:37;;;;;;;0.80;0.10;;;;;;;;;;5088758;28;20027;-58
2020/12/24 03:41:02;;;;;;;2.17;0.20;;;;;;;;;;5092371;28;20047;-55
2020/12/24 03:43:27;;;;;;;0.90;0.40;;;;;;;;;;5092304;28;20091;-55
2020/12/24 03:45:52;;;;;;;1.63;0.17;;;;;;;;;;5091849;28;20020;-55
2020/12/24 03:48:17;;;;;;;0.30;0.20;;;;;;;;;;5090133;28;20019;-55
2020/12/24 03:50:43;;;;;;;0.40;0.10;;;;;;;;;;5091407;28;20017;-57
2020/12/24 03:53:08;;;;;;;0.20;0.10;;;;;;;;;;5091381;28;20008;-56
2020/12/24 03:55:33;;;;;;;0.40;0.20;;;;;;;;;;5092026;28;20020;-57
2020/12/24 03:57:58;;;;;;;1.33;0.20;;;;;;;;;;5091526;28;20020;-57
2020/12/24 04:00:24;;;;;;;0.25;0.10;;;;;;;;;;5088148;28;20027;-55
2020/12/24 04:02:49;;;;;;;1.42;0.10;;;;;;;;;;5091898;28;20103;-57
2020/12/24 04:05:14;;;;;;;0.28;0.10;;;;;;;;;;5089626;28;20114;-53
2020/12/24 04:07:39;;;;;;;0.32;0.10;;;;;;;;;;5087100;28;20023;-58
2020/12/24 04:10:04;;;;;;;0.57;0.20;;;;;;;;;;5086869;28;20027;-56
2020/12/24 04:12:30;;;;;;;0.98;0.10;;;;;;;;;;5094369;28;20031;-58
2020/12/24 04:14:55;;;;;;;0.40;0.20;;;;;;;;;;5095268;28;20458;-58
2020/12/24 04:17:20;;;;;;;0.38;0.10;;;;;;;;;;5095804;28;20020;-55
2020/12/24 04:19:45;;;;;;;1.58;0.20;;;;;;;;;;5092455;28;20028;-58
2020/12/24 04:22:10;;;;;;;0.20;0.10;;;;;;;;;;5089935;28;20030;-56
2020/12/24 04:24:36;;;;;;;0.45;0.20;;;;;;;;;;5090728;28;20040;-56
2020/12/24 04:27:01;;;;;;;0.65;0.13;;;;;;;;;;5095676;28;20496;-57
2020/12/24 04:29:26;;;;;;;1.80;0.17;;;;;;;;;;5091699;28;20025;-58
2020/12/24 04:31:51;;;;;;;0.55;0.30;;;;;;;;;;5095295;28;20505;-52
2020/12/24 04:34:17;;;;;;;0.57;0.20;;;;;;;;;;5095520;28;20110;-54
2020/12/24 04:36:42;;;;;;;1.17;0.17;;;;;;;;;;5095397;28;20112;-56
2020/12/24 04:39:07;;;;;;;2.83;0.15;;;;;;;;;;5091257;28;20024;-55
2020/12/24 04:41:33;;;;;;;0.98;0.20;;;;;;;;;;5094825;28;20347;-57
2020/12/24 04:44:00;;;;;;;1.88;0.10;;;;;;;;;;5095090;28;20600;-56
2020/12/24 04:46:27;;;;;;;0.30;0.20;;;;;;;;;;5094180;28;20023;-58
2020/12/24 04:48:52;;;;;;;0.95;0.10;;;;;;;;;;5091440;28;20124;-55
2020/12/24 04:51:20;;;;;;;0.75;0.10;;;;;;;;;;5090883;28;20611;-57
2020/12/24 04:53:45;;;;;;;0.47;0.10;;;;;;;;;;5087657;28;20051;-55
2020/12/24 04:56:11;;;;;;;1.55;0.10;;;;;;;;;;5094469;28;20117;-56
2020/12/24 04:58:36;;;;;;;0.30;0.10;;;;;;;;;;5092245;28;20016;-58
2020/12/24 05:01:02;;;;;;;1.85;0.20;;;;;;;;;;5094686;28;20055;-54
2020/12/24 05:03:27;;;;;;;1.75;0.32;;;;;;;;;;5093496;28;20035;-57
2020/12/24 05:05:52;;;;;;;2.42;0.30;;;;;;;;;;5091233;28;20107;-56
2020/12/24 05:08:18;;;;;;;1.50;0.05;;;;;;;;;;5092003;28;20058;-57
2020/12/24 05:11:01;;;;;;;2.78;0.10;;;;;;;;;;5092128;28;20024;-56
2020/12/24 05:13:26;;;;;;;2.00;0.30;;;;;;;;;;5090688;28;20020;-53
2020/12/24 05:15:51;;;;;;;2.15;0.60;;;;;;;;;;5085937;28;20082;-54
2020/12/24 05:18:22;;;;;;;1.40;0.20;;;;;;;;;;5092274;28;20136;-56
2020/12/24 05:20:48;;;;;;;0.40;0.10;;;;;;;;;;5093072;28;20085;-55
2020/12/24 05:23:14;;;;;;;2.45;0.50;;;;;;;;;;5093080;28;20031;-52
2020/12/24 05:25:39;;;;;;;2.05;0.10;;;;;;;;;;5093275;28;20030;-54
2020/12/24 05:28:04;;;;;;;1.10;0.20;;;;;;;;;;5088793;28;20020;-53
2020/12/24 05:30:31;;;;;;;1.73;0.10;;;;;;;;;;5091309;28;20012;-53
2020/12/24 05:32:56;;;;;;;1.98;0.10;;;;;;;;;;5092283;28;20024;-56
2020/12/24 05:35:22;;;;;;;1.55;0.20;;;;;;;;;;5097171;28;20061;-53
2020/12/24 05:37:47;;;;;;;2.00;0.10;;;;;;;;;;5094351;28;20020;-52
2020/12/24 05:40:20;;;;;;;0.50;0.10;;;;;;;;;;5082579;28;20036;-51
2020/12/24 05:42:46;;;;;;;1.02;0.10;;;;;;;;;;5093087;28;20059;-55
2020/12/24 05:45:14;;;;;;;1.70;0.30;;;;;;;;;;5093117;28;20055;-53
2020/12/24 05:47:39;;;;;;;2.13;0.63;;;;;;;;;;5093558;28;20012;-51
2020/12/24 05:50:20;;;;;;;1.10;0.10;;;;;;;;;;5090125;28;20072;-56
2020/12/24 05:53:01;;;;;;;3.47;0.25;;;;;;;;;;5091005;28;20023;-51
2020/12/24 05:55:26;;;;;;;0.60;0.10;;;;;;;;;;5093632;28;20103;-53
2020/12/24 05:57:54;;;;;;;3.30;0.22;;;;;;;;;;5093350;28;20494;-52
2020/12/24 06:00:19;;;;;;;2.30;0.28;;;;;;;;;;5089049;28;20065;-55
2020/12/24 06:02:53;;;;;;;0.95;0.28;;;;;;;;;;5094134;28;20103;-55
2020/12/24 06:05:23;;;;;;;1.50;0.08;;;;;;;;;;5092343;28;20016;-54
2020/12/24 06:07:57;;;;;;;1.50;0.00;;;;;;;;;;5085061;28;20016;-54
2020/12/24 06:10:31;;;;;;;2.45;0.20;;;;;;;;;;5083664;28;20497;-55
2020/12/24 06:13:07;;;;;;;2.30;0.20;;;;;;;;;;5093068;28;20012;-55
2020/12/24 06:15:32;;;;;;;1.20;0.10;;;;;;;;;;5086399;28;20104;-54
2020/12/24 06:17:59;;;;;;;0.47;0.25;;;;;;;;;;5081061;28;20157;-55
2020/12/24 06:20:27;;;;;;;1.98;0.10;;;;;;;;;;5087333;28;20031;-56
2020/12/24 06:22:57;;;;;;;2.22;0.25;;;;;;;;;;5092785;28;20020;-53
2020/12/24 06:25:22;;;;;;;0.90;0.10;;;;;;;;;;5089996;28;20566;-56
2020/12/24 06:27:52;;;;;;;1.13;0.10;;;;;;;;;;5079983;28;20103;-54
2020/12/24 06:30:26;;;;;;;2.50;0.10;;;;;;;;;;5089938;28;20407;-55
2020/12/24 06:32:55;;;;;;;1.80;0.17;;;;;;;;;;5093149;28;20023;-55
2020/12/24 06:35:33;;;;;;;2.33;0.13;;;;;;;;;;5087472;28;20435;-54
2020/12/24 06:37:58;;;;;;;1.65;0.10;;;;;;;;;;5080441;28;20020;-53
2020/12/24 06:40:30;;;;;;;0.20;0.00;;;;;;;;;;5089642;28;20024;-55
2020/12/24 06:42:56;;;;;;;2.80;0.40;;;;;;;;;;5092123;28;20019;-52
2020/12/24 06:45:21;;;;;;;1.55;0.10;;;;;;;;;;5092263;28;20534;-57
2020/12/24 06:48:05;;;;;;;2.72;0.10;;;;;;;;;;5091996;28;20012;-53
2020/12/24 06:50:37;;;;;;;1.15;0.20;;;;;;;;;;5088969;28;20550;-54
2020/12/24 06:53:17;;;;;;;2.88;0.30;;;;;;;;;;5092162;28;20013;-52
2020/12/24 06:55:42;;;;;;;3.03;0.20;;;;;;;;;;5092455;28;20510;-53
2020/12/24 06:58:07;;;;;;;3.83;0.17;;;;;;;;;;5091850;28;20103;-56
2020/12/24 07:00:33;;;;;;;2.90;0.20;;;;;;;;;;5086316;28;20103;-55
2020/12/24 07:03:18;;;;;;;5.10;0.20;;;;;;;;;;5092490;28;20145;-55
2020/12/24 07:05:43;;;;;;;3.55;0.30;;;;;;;;;;5091745;28;20024;-54
2020/12/24 07:08:32;;;;;;;2.28;0.40;;;;;;;;;;5086178;28;20050;-54
2020/12/24 07:10:57;;;;;;;2.28;0.17;;;;;;;;;;5088896;28;20068;-56
2020/12/24 07:13:36;;;;;;;1.35;0.30;;;;;;;;;;5091743;28;20016;-56
2020/12/24 07:16:02;;;;;;;2.33;0.30;;;;;;;;;;5085116;28;20028;-56
2020/12/24 07:18:29;;;;;;;1.85;0.30;;;;;;;;;;5085226;28;20016;-57
2020/12/24 07:20:58;;;;;;;2.47;0.20;;;;;;;;;;5086609;28;20028;-53
2020/12/24 07:23:30;;;;;;;3.15;0.20;;;;;;;;;;5086362;28;20460;-57
2020/12/24 07:25:57;;;;;;;1.38;0.10;;;;;;;;;;5090619;28;20435;-54
2020/12/24 07:28:22;;;;;;;2.00;0.20;;;;;;;;;;5089523;28;20486;-57
2020/12/24 07:30:57;;;;;;;3.97;0.20;;;;;;;;;;5091521;28;20016;-56
2020/12/24 07:33:22;;;;;;;0.60;0.10;;;;;;;;;;5092296;28;20447;-52
2020/12/24 07:35:48;;;;;;;2.38;0.15;;;;;;;;;;5089710;28;20102;-56
2020/12/24 07:38:13;;;;;;;5.57;0.40;;;;;;;;;;5090295;28;20030;-57
2020/12/24 07:40:40;;;;;;;5.45;0.52;;;;;;;;;;5090546;28;20360;-56
2020/12/24 07:43:09;;;;;;;2.80;0.25;;;;;;;;;;5095965;28;20117;-53
2020/12/24 07:45:34;;;;;;;4.53;0.52;;;;;;;;;;5092714;28;20036;-55
2020/12/24 07:47:59;;;;;;;2.22;0.20;;;;;;;;;;5083910;28;20016;-57
2020/12/24 07:50:28;;;;;;;5.82;0.35;;;;;;;;;;5091649;28;20020;-53
2020/12/24 07:52:54;;;;;;;3.97;0.55;;;;;;;;;;5095889;28;20032;-56
2020/12/24 07:55:19;;;;;;;2.97;0.40;;;;;;;;;;5093876;28;20085;-55
2020/12/24 07:57:44;;;;;;;4.78;0.57;;;;;;;;;;5096282;28;20027;-55
2020/12/24 08:00:09;;;;;;;5.50;0.28;;;;;;;;;;5085505;28;20020;-55
2020/12/24 08:02:35;;;;;;;4.05;0.30;;;;;;;;;;5091554;28;20066;-56
2020/12/24 08:05:00;;;;;;;5.93;0.52;;;;;;;;;;5090838;28;20051;-56
2020/12/24 08:07:26;;;;;;;6.43;0.32;;;;;;;;;;5085365;28;20024;-52
2020/12/24 08:09:51;;;;;;;0.38;0.10;;;;;;;;;;5087037;28;20027;-55
2020/12/24 08:12:21;;;;;;;6.00;0.20;;;;;;;;;;5093957;28;20024;-57
2020/12/24 08:14:46;;;;;;;4.38;0.65;;;;;;;;;;5094334;28;20479;-56
2020/12/24 08:17:17;;;;;;;3.83;0.10;;;;;;;;;;5095632;28;20074;-57
2020/12/24 08:19:51;;;;;;;5.78;0.30;;;;;;;;;;5091261;28;20058;-56
2020/12/24 08:22:22;;;;;;;2.55;0.20;;;;;;;;;;5075452;28;20066;-55
2020/12/24 08:24:48;;;;;;;5.82;0.40;;;;;;;;;;5083847;28;20071;-53
2020/12/24 08:27:13;;;;;;;3.92;0.55;;;;;;;;;;5095392;28;20382;-56
2020/12/24 08:29:39;;;;;;;3.47;0.30;;;;;;;;;;5091478;28;20020;-56
2020/12/24 08:32:05;;;;;;;4.57;0.30;;;;;;;;;;5095093;28;20026;-57
2020/12/24 08:34:30;;;;;;;4.53;0.20;;;;;;;;;;5094659;28;20024;-56
2020/12/24 08:36:56;;;;;;;3.10;0.40;;;;;;;;;;5095621;28;20023;-56
2020/12/24 08:39:22;;;;;;;2.72;0.30;;;;;;;;;;5084333;28;20028;-58
2020/12/24 08:41:53;;;;;;;2.92;0.10;;;;;;;;;;5075721;28;20031;-58
2020/12/24 08:44:19;;;;;;;5.88;0.30;;;;;;;;;;5091383;28;20073;-56
2020/12/24 08:46:45;;;;;;;4.68;0.35;;;;;;;;;;5094783;28;20024;-56
2020/12/24 08:49:16;;;;;;;4.50;0.55;;;;;;;;;;5083147;28;20069;-57
2020/12/24 08:51:41;;;;;;;1.10;0.25;;;;;;;;;;5094787;28;20030;-58
2020/12/24 08:54:07;;;;;;;2.55;0.35;;;;;;;;;;5092038;28;20462;-57
2020/12/24 08:56:33;;;;;;;2.80;0.20;;;;;;;;;;5095264;28;20026;-56
2020/12/24 08:58:58;;;;;;;5.32;0.45;;;;;;;;;;5090600;28;20028;-58
2020/12/24 09:01:24;;;;;;;4.47;0.30;;;;;;;;;;5094904;28;20538;-58
2020/12/24 09:03:49;;;;;;;4.28;0.32;;;;;;;;;;5092232;28;20106;-57
2020/12/24 09:06:15;;;;;;;1.38;0.20;;;;;;;;;;5094378;28;20103;-58
2020/12/24 09:08:41;;;;;;;3.28;0.40;;;;;;;;;;5089674;28;20016;-57
2020/12/24 09:11:24;;;;;;;5.82;0.60;;;;;;;;;;5093613;28;20019;-55
2020/12/24 09:13:54;;;;;;;2.92;0.40;;;;;;;;;;5087177;28;20065;-55
2020/12/24 09:16:19;;;;;;;4.57;0.38;;;;;;;;;;5091505;28;20020;-57
2020/12/24 09:18:45;;;;;;;3.83;0.60;;;;;;;;;;5086863;28;20081;-57
2020/12/24 09:21:10;;;;;;;6.00;0.75;;;;;;;;;;5088723;28;20408;-55
2020/12/24 09:23:36;;;;;;;6.38;0.30;;;;;;;;;;5087202;28;20504;-58
2020/12/24 09:26:01;;;;;;;1.27;0.20;;;;;;;;;;5094499;28;20020;-57
2020/12/24 09:28:27;;;;;;;3.83;0.63;;;;;;;;;;5091580;28;20023;-55
2020/12/24 09:30:54;;;;;;;2.83;0.43;;;;;;;;;;5093795;28;20017;-57
2020/12/24 09:33:19;;;;;;;4.20;0.60;;;;;;;;;;5092230;28;20095;-58
2020/12/24 09:35:45;;;;;;;5.55;0.40;;;;;;;;;;5093939;28;20577;-57
2020/12/24 09:38:10;;;;;;;2.20;0.20;;;;;;;;;;5085455;28;20025;-57
2020/12/24 09:40:36;;;;;;;4.72;0.40;;;;;;;;;;5072237;28;20017;-57
2020/12/24 09:43:01;;;;;;;3.65;0.40;;;;;;;;;;5087594;28;20031;-57
2020/12/24 09:45:28;;;;;;;2.75;0.20;;;;;;;;;;5093195;28;20056;-58
2020/12/24 09:47:54;;;;;;;2.95;0.50;;;;;;;;;;5092807;28;20016;-54
2020/12/24 09:50:19;;;;;;;1.17;0.20;;;;;;;;;;5090154;28;20065;-57
2020/12/24 09:52:44;;;;;;;2.78;0.30;;;;;;;;;;5085817;28;20016;-57
2020/12/24 09:55:09;;;;;;;2.08;0.25;;;;;;;;;;5085949;28;20055;-57
2020/12/24 09:57:35;;;;;;;4.95;0.47;;;;;;;;;;5076420;28;20023;-55
2020/12/24 10:00:01;;;;;;;2.53;0.20;;;;;;;;;;5089022;28;20103;-57
2020/12/24 10:02:26;;;;;;;5.03;0.30;;;;;;;;;;5079999;28;20021;-57
2020/12/24 10:04:52;;;;;;;1.75;0.10;;;;;;;;;;5086960;28;20121;-54
2020/12/24 10:07:17;;;;;;;1.80;0.40;;;;;;;;;;5092714;28;20043;-56
2020/12/24 10:09:43;;;;;;;2.80;0.28;;;;;;;;;;5087682;28;20031;-53
2020/12/24 10:12:08;;;;;;;4.03;0.77;;;;;;;;;;5092865;28;20068;-58
2020/12/24 10:14:33;;;;;;;2.15;0.10;;;;;;;;;;5084998;28;20054;-57
2020/12/24 10:17:02;;;;;;;3.90;0.20;;;;;;;;;;5088807;28;20118;-57
2020/12/24 10:19:28;;;;;;;0.82;0.13;;;;;;;;;;5089638;28;20103;-58
2020/12/24 10:21:53;;;;;;;2.67;0.20;;;;;;;;;;5092034;28;20115;-54
2020/12/24 10:24:18;;;;;;;3.70;0.20;;;;;;;;;;5092018;28;20115;-56
2020/12/24 10:26:43;;;;;;;3.97;0.30;;;;;;;;;;5090333;28;20020;-57
2020/12/24 10:29:09;;;;;;;2.42;0.30;;;;;;;;;;5089080;28;20065;-52
2020/12/24 10:31:34;;;;;;;1.85;0.32;;;;;;;;;;5091982;28;20016;-56
2020/12/24 10:33:59;;;;;;;2.50;0.25;;;;;;;;;;5083353;28;20024;-56
2020/12/24 10:36:24;;;;;;;2.65;0.30;;;;;;;;;;5080647;28;20023;-54
2020/12/24 10:38:50;;;;;;;2.58;0.30;;;;;;;;;;5088309;28;20501;-56
2020/12/24 10:41:15;;;;;;;1.23;0.10;;;;;;;;;;5092965;28;20020;-55
2020/12/24 10:43:40;;;;;;;0.90;0.20;;;;;;;;;;5089916;28;20024;-57
2020/12/24 10:46:06;;;;;;;1.58;0.30;;;;;;;;;;5091990;28;20024;-58
2020/12/24 10:48:31;;;;;;;0.25;0.10;;;;;;;;;;5089341;28;20022;-56
2020/12/24 10:50:56;;;;;;;1.48;0.10;;;;;;;;;;5093121;28;20012;-56
2020/12/24 10:53:21;;;;;;;0.93;0.10;;;;;;;;;;5091928;28;20396;-56
2020/12/24 10:55:47;;;;;;;2.22;0.10;;;;;;;;;;5090122;28;20494;-54
2020/12/24 10:58:12;;;;;;;0.50;0.10;;;;;;;;;;5085524;28;20482;-56
2020/12/24 11:00:37;;;;;;;1.42;0.20;;;;;;;;;;5081654;28;20038;-54
2020/12/24 11:03:03;;;;;;;4.20;0.00;;;;;;;;;;5090522;28;20032;-56
2020/12/24 11:05:28;;;;;;;2.40;0.50;;;;;;;;;;5089864;28;20084;-56
2020/12/24 11:07:53;;;;;;;1.92;0.20;;;;;;;;;;5091917;28;20062;-54
2020/12/24 11:10:18;;;;;;;1.88;0.20;;;;;;;;;;5086631;28;20117;-52
2020/12/24 11:12:44;;;;;;;1.70;0.20;;;;;;;;;;5092183;28;20489;-55
2020/12/24 11:15:09;;;;;;;3.58;0.10;;;;;;;;;;5091712;28;20024;-55
2020/12/24 11:17:34;;;;;;;2.22;0.10;;;;;;;;;;5091938;28;20073;-56
2020/12/24 11:19:59;;;;;;;2.95;0.17;;;;;;;;;;5089819;28;20103;-54
2020/12/24 11:22:24;;;;;;;0.90;0.10;;;;;;;;;;5091771;28;20143;-53
2020/12/24 11:24:50;;;;;;;0.88;0.10;;;;;;;;;;5091942;28;20486;-55
2020/12/24 11:27:15;;;;;;;1.38;0.10;;;;;;;;;;5092004;28;20022;-55
2020/12/24 11:29:40;;;;;;;1.88;0.20;;;;;;;;;;5089163;28;20020;-56
2020/12/24 11:32:05;;;;;;;2.65;0.20;;;;;;;;;;5091418;28;20012;-56
2020/12/24 11:34:31;;;;;;;1.73;0.20;;;;;;;;;;5091810;28;20377;-55
2020/12/24 11:36:57;;;;;;;1.08;0.05;;;;;;;;;;5092207;28;20429;-54
2020/12/24 11:39:22;;;;;;;0.65;0.10;;;;;;;;;;5087959;28;20022;-52
2020/12/24 11:41:47;;;;;;;2.83;0.17;;;;;;;;;;5092445;28;20051;-53
2020/12/24 11:44:12;;;;;;;1.15;0.10;;;;;;;;;;5091669;28;20030;-56
2020/12/24 11:46:38;;;;;;;0.50;0.00;;;;;;;;;;5082473;28;20015;-56
2020/12/24 11:49:03;;;;;;;1.98;0.20;;;;;;;;;;5080265;28;20024;-54
2020/12/24 11:51:29;;;;;;;1.60;0.75;;;;;;;;;;5092224;28;20013;-57
2020/12/24 11:53:55;;;;;;;1.13;0.20;;;;;;;;;;5090460;28;20504;-55
2020/12/24 11:56:20;;;;;;;0.45;0.10;;;;;;;;;;5091543;28;20020;-56
2020/12/24 11:58:46;;;;;;;1.38;0.10;;;;;;;;;;5089059;28;20510;-55
2020/12/24 12:01:12;;;;;;;0.40;0.10;;;;;;;;;;5091803;28;20016;-57
2020/12/24 12:03:37;;;;;;;3.10;0.20;;;;;;;;;;5091611;28;20023;-53
2020/12/24 12:06:04;;;;;;;0.47;0.10;;;;;;;;;;5092326;28;20493;-55
2020/12/24 12:08:29;;;;;;;1.02;0.10;;;;;;;;;;5089016;28;20012;-56
2020/12/24 12:10:55;;;;;;;0.30;0.00;;;;;;;;;;5086722;28;20450;-53
2020/12/24 12:13:20;;;;;;;1.05;0.10;;;;;;;;;;5091162;28;20081;-52
2020/12/24 12:15:45;;;;;;;1.25;0.00;;;;;;;;;;5091915;28;20020;-53
2020/12/24 12:18:10;;;;;;;0.88;0.20;;;;;;;;;;5091091;28;20020;-56
2020/12/24 12:20:35;;;;;;;1.88;0.08;;;;;;;;;;5088670;28;20488;-54
2020/12/24 12:23:01;;;;;;;0.55;0.10;;;;;;;;;;5090809;28;20024;-55
2020/12/24 12:25:26;;;;;;;0.73;0.25;;;;;;;;;;5090966;28;20466;-56
2020/12/24 12:27:52;;;;;;;0.50;0.10;;;;;;;;;;5094244;28;20039;-57
2020/12/24 12:30:17;;;;;;;0.60;0.10;;;;;;;;;;5091816;28;20013;-55
2020/12/24 12:32:43;;;;;;;0.40;0.10;;;;;;;;;;5093595;28;20023;-57
2020/12/24 12:35:08;;;;;;;0.50;0.05;;;;;;;;;;5091147;28;20037;-55
2020/12/24 12:37:34;;;;;;;1.67;0.15;;;;;;;;;;5075755;28;20024;-56
2020/12/24 12:39:59;;;;;;;1.48;0.20;;;;;;;;;;5090092;28;20024;-52
2020/12/24 12:42:25;;;;;;;0.90;0.00;;;;;;;;;;5095122;28;20024;-56
2020/12/24 12:44:50;;;;;;;0.30;0.10;;;;;;;;;;5088801;28;20386;-55
2020/12/24 12:47:15;;;;;;;0.63;0.10;;;;;;;;;;5094987;28;20385;-54
2020/12/24 12:49:40;;;;;;;0.35;0.20;;;;;;;;;;5080966;28;20029;-55
2020/12/24 12:52:06;;;;;;;0.15;0.10;;;;;;;;;;5082644;28;20104;-53
2020/12/24 12:54:31;;;;;;;1.05;0.00;;;;;;;;;;5087260;28;20012;-58
2020/12/24 12:56:56;;;;;;;0.60;0.10;;;;;;;;;;5095005;28;20459;-56
2020/12/24 12:59:21;;;;;;;0.30;0.00;;;;;;;;;;5090253;28;20016;-55
2020/12/24 13:01:50;;;;;;;0.25;0.00;;;;;;;;;;5092301;28;20032;-56
2020/12/24 13:04:16;;;;;;;0.93;0.10;;;;;;;;;;5087294;28;20038;-54
2020/12/24 13:06:41;;;;;;;0.40;0.00;;;;;;;;;;5094776;28;20020;-56
2020/12/24 13:09:06;;;;;;;0.75;0.00;;;;;;;;;;5090870;28;20092;-57
2020/12/24 13:11:31;;;;;;;0.22;0.05;;;;;;;;;;5095107;28;20535;-54
2020/12/24 13:13:56;;;;;;;0.20;0.10;;;;;;;;;;5094232;28;20173;-56
2020/12/24 13:16:25;;;;;;;0.57;0.20;;;;;;;;;;5089109;28;20466;-53
2020/12/24 13:18:51;;;;;;;0.10;0.00;;;;;;;;;;5085241;28;20029;-56
2020/12/24 13:21:16;;;;;;;0.20;0.20;;;;;;;;;;5084698;28;20099;-56
2020/12/24 13:23:41;;;;;;;0.20;0.00;;;;;;;;;;5087576;28;20036;-57
2020/12/24 13:26:06;;;;;;;0.47;0.10;;;;;;;;;;5092733;28;20020;-56
2020/12/24 13:28:31;;;;;;;1.08;0.10;;;;;;;;;;5090338;28;20027;-56
2020/12/24 13:30:57;;;;;;;0.10;0.08;;;;;;;;;;5092637;28;20020;-56
2020/12/24 13:33:22;;;;;;;0.30;0.10;;;;;;;;;;5092880;28;20119;-57
2020/12/24 13:35:47;;;;;;;0.47;0.10;;;;;;;;;;5094002;28;20114;-54
2020/12/24 13:38:12;;;;;;;0.10;0.00;;;;;;;;;;5090809;28;20532;-58
2020/12/24 13:40:37;;;;;;;0.10;0.00;;;;;;;;;;5091710;28;20031;-56
2020/12/24 13:43:03;;;;;;;0.10;0.08;;;;;;;;;;5091094;28;20034;-57
2020/12/24 13:45:28;;;;;;;0.20;0.10;;;;;;;;;;5091609;28;20447;-57
2020/12/24 13:47:53;;;;;;;0.28;0.10;;;;;;;;;;5094004;28;20406;-57
2020/12/24 13:50:18;;;;;;;0.08;0.00;;;;;;;;;;5090780;28;20014;-55
2020/12/24 13:52:44;;;;;;;0.20;0.00;;;;;;;;;;5092563;28;20012;-54
2020/12/24 13:55:09;;;;;;;0.10;0.00;;;;;;;;;;5092340;28;20092;-55
2020/12/24 13:57:34;;;;;;;0.20;0.05;;;;;;;;;;5088316;28;20017;-55
2020/12/24 13:59:59;;;;;;;0.30;0.20;;;;;;;;;;5089474;28;20015;-55
2020/12/24 14:02:29;;;;;;;0.00;0.00;;;;;;;;;;5092342;28;20069;-54
2020/12/24 14:04:58;;;;;;;0.75;0.00;;;;;;;;;;5090793;28;20024;-56
2020/12/24 14:07:23;;;;;;;0.30;0.00;;;;;;;;;;5087710;28;20012;-57
2020/12/24 14:09:49;;;;;;;0.00;0.00;;;;;;;;;;5090483;28;20387;-56
2020/12/24 14:12:14;;;;;;;0.22;0.00;;;;;;;;;;5093089;28;20024;-56
2020/12/24 14:14:39;;;;;;;0.20;0.00;;;;;;;;;;5093692;28;20023;-57
2020/12/24 14:17:05;;;;;;;0.10;0.00;;;;;;;;;;5092942;28;20028;-56
2020/12/24 14:19:30;;;;;;;1.45;0.00;;;;;;;;;;5093583;28;20022;-56
2020/12/24 14:21:59;;;;;;;0.10;0.00;;;;;;;;;;5097790;28;20112;-56
2020/12/24 14:24:24;;;;;;;0.10;0.00;;;;;;;;;;5091271;28;20123;-56
2020/12/24 14:26:53;;;;;;;0.40;0.05;;;;;;;;;;5093280;28;20490;-55
2020/12/24 14:29:18;;;;;;;0.10;0.10;;;;;;;;;;5088548;28;20378;-57
2020/12/24 14:31:43;;;;;;;0.00;0.00;;;;;;;;;;5092407;28;20017;-57
2020/12/24 14:34:08;;;;;;;0.20;0.00;;;;;;;;;;5089471;28;20031;-54
2020/12/24 14:36:34;;;;;;;0.20;0.20;;;;;;;;;;5093058;28;20016;-56